Pipera, Romania

2:10 AM EET on March 26, 2017 (GMT +0200)
Baneasa | | Change Station

Elev 299 ft 44.50 °N, 26.13 °E | Updated 10 minutes ago

Overcast
Overcast
48 °F
Feels Like 48 °F
N
4
Wind Variable Wind from South

Today
High -- | Low -- °F
--% Chance of Precip.
Yesterday
High -- | Low -- °F
Precip. -- in
Pressure 29.98 in
Visibility 6.2 miles
Clouds Mostly Cloudy 2800 ft
Overcast 3400 ft
Dew Point 43 °F
Humidity 82%
Rainfall 0.00 in
Snow Depth Not available.
7:07 AM 7:35 PM
Waning Crescent, 6% visible
METAR LRBS 260000Z 19003KT 9999 BKN028 OVC034 09/06 Q1015 NOSIG
Pressure 29.98 in
Visibility 6.2 miles
Clouds Mostly Cloudy 2800 ft
Overcast 3400 ft
Dew Point 43 °F
Humidity 82%
Rainfall 0.00 in
Snow Depth Not available.
7:07 AM 7:35 PM
Waning Crescent, 6% visible
METAR LRBS 260000Z 19003KT 9999 BKN028 OVC034 09/06 Q1015 NOSIG

Get Severe Weather Alerts

Thanks for signing up!

Be on the lookout for a verification email in your inbox.

You'll start receiving the daily forecast at 8 AM.

×

10-Day Weather Forecast

×

Almanac

Astronomy

Mar. 26, 2017 Rise Set
Actual Time
Civil Twilight
Nautical Twilight
Astronomical Twilight
Moon
Length of Visible Light
Length of Day
Tomorrow will be .
, % of the Moon is Illuminated

Today's Extremes

Country Highs Country Lows

Community

WunderPhotos

Upload Photos

1,962,540 photos uploaded!

WunderBlog® & News

Nearby

Air Quality

  Air Quality AQ Index Pollutant
Not available.

Snow Depth

Station Depth Elevation

Earthquake Activity

City Distance Mag. Time & Date
Minimum magnitude displayed is 2.5.

Earthquake Activity

City Distance Mag. Time & Date
Minimum magnitude displayed is 2.5.

Coastal Water Temperatures

Place Temperature

Stations

Nearby Weather Stations

Station Location Temp. Windchill Dew Point Humidity Wind Precip. Elev Updated Type